createdAt,value
2022-11-23T00:01:50.785Z,100.00
2022-11-23T00:04:35.773Z,100.00
2022-11-23T00:07:20.784Z,100.00
2022-11-23T00:10:06.160Z,100.00
2022-11-23T00:12:51.251Z,100.00
2022-11-23T00:15:36.072Z,100.00
2022-11-23T00:18:21.407Z,100.00
2022-11-23T00:21:08.196Z,100.00
2022-11-23T00:23:53.215Z,100.00
2022-11-23T00:26:38.628Z,100.00
2022-11-23T00:29:23.894Z,100.00
2022-11-23T00:32:09.011Z,100.00
2022-11-23T00:34:54.143Z,100.00
2022-11-23T00:37:39.316Z,100.00
2022-11-23T00:40:24.238Z,100.00
2022-11-23T00:43:09.384Z,100.00
2022-11-23T00:46:18.470Z,100.00
2022-11-23T00:49:04.334Z,100.00
2022-11-23T00:51:49.516Z,100.00
2022-11-23T00:54:34.839Z,100.00
2022-11-23T00:57:19.751Z,100.00
2022-11-23T01:00:06.674Z,100.00
2022-11-23T01:02:51.675Z,100.00
2022-11-23T01:05:37.847Z,100.00
2022-11-23T01:08:23.087Z,100.00
2022-11-23T01:11:12.122Z,100.00
2022-11-23T01:13:57.538Z,100.00
2022-11-23T01:16:42.606Z,100.00
2022-11-23T01:19:27.727Z,100.00
2022-11-23T01:22:13.055Z,100.00
2022-11-23T01:24:58.085Z,100.00
2022-11-23T01:27:43.008Z,100.00
2022-11-23T01:30:28.100Z,100.00
2022-11-23T01:33:13.511Z,100.00
2022-11-23T01:35:58.540Z,100.00
2022-11-23T01:38:44.324Z,100.00
2022-11-23T01:41:32.712Z,100.00
2022-11-23T01:44:24.958Z,100.00
2022-11-23T01:47:10.825Z,100.00
2022-11-23T01:49:55.934Z,100.00
2022-11-23T01:52:41.185Z,100.00
2022-11-23T01:55:27.648Z,100.00
2022-11-23T01:58:17.460Z,100.00
2022-11-23T02:01:03.064Z,100.00
2022-11-23T02:03:49.163Z,100.00
2022-11-23T02:06:35.231Z,100.00
2022-11-23T02:09:22.360Z,100.00
2022-11-23T02:12:14.558Z,100.00
2022-11-23T02:14:59.717Z,100.00
2022-11-23T02:17:45.346Z,100.00
2022-11-23T02:20:31.086Z,100.00
2022-11-23T02:23:25.225Z,100.00
2022-11-23T02:26:16.062Z,100.00
2022-11-23T02:29:16.177Z,100.00
2022-11-23T02:32:01.261Z,100.00
2022-11-23T02:34:46.522Z,100.00
2022-11-23T02:37:31.742Z,100.00
2022-11-23T02:40:27.353Z,100.00
2022-11-23T02:46:16.245Z,100.00
2022-11-23T02:49:01.592Z,100.00
2022-11-23T02:51:46.876Z,100.00
2022-11-23T02:54:32.191Z,100.00
2022-11-23T02:57:17.112Z,100.00
2022-11-23T03:00:02.282Z,100.00
2022-11-23T03:02:47.240Z,100.00
2022-11-23T03:05:32.487Z,100.00
2022-11-23T03:08:17.695Z,100.00
2022-11-23T03:11:02.739Z,100.00
2022-11-23T03:13:47.803Z,100.00
2022-11-23T03:16:34.101Z,100.00
2022-11-23T03:19:19.365Z,100.00
2022-11-23T03:22:04.477Z,100.00
2022-11-23T03:24:49.542Z,100.00
2022-11-23T03:27:34.934Z,100.00
2022-11-23T03:30:20.117Z,100.00
2022-11-23T03:33:08.343Z,100.00
2022-11-23T03:35:53.403Z,100.00
2022-11-23T03:38:38.751Z,100.00
2022-11-23T03:41:23.947Z,100.00
2022-11-23T03:44:09.130Z,100.00
2022-11-23T03:46:54.728Z,100.00
2022-11-23T03:49:39.679Z,100.00
2022-11-23T03:52:24.694Z,100.00
2022-11-23T03:55:09.706Z,100.00
2022-11-23T03:57:59.400Z,100.00
2022-11-23T04:00:44.472Z,100.00
2022-11-23T04:03:29.545Z,100.00
2022-11-23T04:06:14.519Z,100.00
2022-11-23T04:09:02.346Z,100.00
2022-11-23T04:11:47.722Z,100.00
2022-11-23T04:14:33.053Z,100.00
2022-11-23T04:17:18.379Z,100.00
2022-11-23T04:20:04.773Z,100.00
2022-11-23T04:22:49.991Z,100.00
2022-11-23T04:25:35.189Z,100.00
2022-11-23T04:28:20.445Z,100.00
2022-11-23T04:31:05.470Z,100.00
2022-11-23T04:33:50.682Z,100.00
2022-11-23T04:36:35.774Z,100.00
2022-11-23T04:39:20.796Z,100.00
2022-11-23T04:42:05.973Z,100.00
2022-11-23T04:44:51.044Z,100.00
2022-11-23T04:47:36.170Z,100.00
2022-11-23T04:50:21.103Z,100.00
2022-11-23T04:53:06.077Z,100.00
2022-11-23T04:55:51.161Z,100.00
2022-11-23T04:58:36.640Z,100.00
2022-11-23T05:01:21.851Z,100.00
2022-11-23T05:04:06.732Z,100.00
2022-11-23T05:06:51.853Z,100.00
2022-11-23T05:09:37.100Z,100.00
2022-11-23T05:12:22.440Z,100.00
2022-11-23T05:15:08.312Z,100.00
2022-11-23T05:17:57.818Z,100.00
2022-11-23T05:20:44.827Z,100.00
2022-11-23T05:23:30.018Z,100.00
2022-11-23T05:26:14.900Z,100.00
2022-11-23T05:29:00.063Z,100.00
2022-11-23T05:31:44.951Z,100.00
2022-11-23T05:34:29.823Z,100.00
2022-11-23T05:37:14.582Z,100.00
2022-11-23T05:39:59.660Z,100.00
2022-11-23T05:42:44.768Z,100.00
2022-11-23T05:45:29.775Z,100.00
2022-11-23T05:48:15.286Z,100.00
2022-11-23T05:51:05.243Z,100.00
2022-11-23T05:53:50.358Z,100.00
2022-11-23T05:56:40.034Z,100.00
2022-11-23T05:59:25.455Z,100.00
2022-11-23T06:02:10.406Z,100.00
2022-11-23T06:04:55.292Z,100.00
2022-11-23T06:07:40.284Z,100.00
2022-11-23T06:10:25.628Z,100.00
2022-11-23T06:13:10.796Z,100.00
2022-11-23T06:15:55.724Z,100.00
2022-11-23T06:18:40.854Z,100.00
2022-11-23T06:21:26.056Z,100.00
2022-11-23T06:24:11.192Z,100.00
2022-11-23T06:26:56.013Z,100.00
2022-11-23T06:29:41.282Z,100.00
2022-11-23T06:32:26.230Z,100.00
2022-11-23T06:35:11.476Z,100.00
2022-11-23T06:37:56.479Z,100.00
2022-11-23T06:40:41.915Z,100.00
2022-11-23T06:43:28.100Z,100.00
2022-11-23T06:46:13.110Z,100.00
2022-11-23T06:48:58.676Z,100.00
2022-11-23T06:51:43.594Z,100.00
2022-11-23T06:54:28.867Z,100.00
2022-11-23T06:57:14.166Z,100.00
2022-11-23T06:59:59.171Z,100.00
2022-11-23T07:02:50.557Z,100.00
2022-11-23T07:05:38.612Z,100.00
2022-11-23T07:08:24.317Z,100.00
2022-11-23T07:11:11.528Z,100.00
2022-11-23T07:13:56.915Z,100.00
2022-11-23T07:16:42.702Z,100.00
2022-11-23T07:19:27.653Z,100.00
2022-11-23T07:22:12.661Z,100.00
2022-11-23T07:24:57.726Z,100.00
2022-11-23T07:27:43.211Z,100.00
2022-11-23T07:30:30.807Z,100.00
2022-11-23T07:33:16.309Z,100.00
2022-11-23T07:36:02.782Z,100.00
2022-11-23T07:38:47.743Z,100.00
2022-11-23T07:41:32.675Z,100.00
2022-11-23T07:44:17.625Z,100.00
2022-11-23T07:47:02.983Z,100.00
2022-11-23T07:49:48.034Z,100.00
2022-11-23T07:52:35.149Z,100.00
2022-11-23T07:55:20.822Z,100.00
2022-11-23T07:58:06.516Z,100.00
2022-11-23T08:00:51.882Z,100.00
2022-11-23T08:03:37.261Z,100.00
2022-11-23T08:06:22.612Z,100.00
2022-11-23T08:09:08.422Z,100.00
2022-11-23T08:11:53.329Z,100.00
2022-11-23T08:14:38.715Z,100.00
2022-11-23T08:17:23.854Z,100.00
2022-11-23T08:20:09.606Z,100.00
2022-11-23T08:22:58.308Z,100.00
2022-11-23T08:25:43.195Z,100.00
2022-11-23T08:28:28.185Z,100.00
2022-11-23T08:31:14.708Z,100.00
2022-11-23T08:34:03.250Z,100.00
2022-11-23T08:36:49.586Z,100.00
2022-11-23T08:39:34.892Z,100.00
2022-11-23T08:42:19.963Z,100.00
2022-11-23T08:45:06.536Z,100.00
2022-11-23T08:47:52.918Z,100.00
2022-11-23T08:50:38.774Z,100.00
2022-11-23T08:53:23.906Z,100.00
2022-11-23T08:56:09.941Z,100.00
2022-11-23T08:58:54.907Z,100.00
2022-11-23T09:01:39.833Z,100.00
2022-11-23T09:04:27.515Z,100.00
2022-11-23T09:07:12.663Z,100.00
2022-11-23T09:09:57.643Z,100.00
2022-11-23T09:12:42.967Z,100.00
2022-11-23T09:15:27.837Z,100.00
2022-11-23T09:18:12.776Z,100.00
2022-11-23T09:20:58.140Z,100.00
2022-11-23T09:23:43.346Z,100.00
2022-11-23T09:26:28.606Z,100.00
2022-11-23T09:29:13.895Z,100.00
2022-11-23T09:31:59.049Z,100.00
2022-11-23T09:34:45.315Z,100.00
2022-11-23T09:37:30.454Z,100.00
2022-11-23T09:40:17.464Z,100.00
2022-11-23T09:43:27.675Z,100.00
2022-11-23T09:46:35.631Z,100.00
2022-11-23T09:49:29.736Z,100.00
2022-11-23T09:52:18.251Z,100.00
2022-11-23T09:55:16.568Z,100.00
2022-11-23T09:58:05.929Z,100.00
2022-11-23T10:00:59.294Z,100.00
2022-11-23T10:03:48.724Z,100.00
2022-11-23T10:06:48.541Z,100.00
2022-11-23T10:09:48.299Z,100.00
2022-11-23T10:12:52.133Z,100.00
2022-11-23T10:16:14.664Z,100.00
2022-11-23T10:19:19.834Z,100.00
2022-11-23T10:22:22.340Z,100.00
2022-11-23T10:25:29.135Z,100.00
2022-11-23T10:28:17.323Z,100.00
2022-11-23T10:31:20.117Z,100.00
2022-11-23T10:34:11.656Z,100.00
2022-11-23T10:36:57.073Z,100.00
2022-11-23T10:39:42.016Z,100.00
2022-11-23T10:42:36.302Z,100.00
2022-11-23T10:45:24.586Z,100.00
2022-11-23T10:48:09.934Z,100.00
2022-11-23T10:51:15.972Z,100.00
2022-11-23T10:54:05.657Z,100.00
2022-11-23T10:56:52.630Z,100.00
2022-11-23T10:59:39.101Z,100.00
2022-11-23T11:02:24.159Z,100.00
2022-11-23T11:08:54.983Z,100.00
2022-11-23T11:11:47.442Z,100.00
2022-11-23T11:14:42.768Z,100.00
2022-11-23T11:17:31.887Z,100.00
2022-11-23T11:20:32.829Z,100.00
2022-11-23T11:23:21.647Z,100.00
2022-11-23T11:26:20.352Z,100.00
2022-11-23T11:29:09.938Z,100.00
2022-11-23T11:32:05.837Z,100.00
2022-11-23T11:34:55.262Z,100.00
2022-11-23T11:37:46.273Z,100.00
2022-11-23T11:40:52.550Z,100.00
2022-11-23T11:43:51.051Z,100.00
2022-11-23T11:46:40.827Z,100.00
2022-11-23T11:49:33.115Z,100.00
2022-11-23T11:52:23.819Z,100.00
2022-11-23T11:55:21.164Z,100.00
2022-11-23T11:58:11.548Z,100.00
2022-11-23T12:01:08.488Z,100.00
2022-11-23T12:03:59.771Z,100.00
2022-11-23T12:06:52.800Z,100.00
2022-11-23T12:09:42.476Z,99.97
2022-11-23T12:12:35.805Z,99.40
2022-11-23T12:15:48.332Z,98.83
2022-11-23T12:18:45.800Z,97.72
2022-11-23T12:22:06.793Z,97.02
2022-11-23T12:25:16.080Z,96.69
2022-11-23T12:28:20.197Z,94.46
2022-11-23T12:31:32.611Z,92.92
2022-11-23T12:34:32.988Z,93.70
2022-11-23T12:37:39.251Z,92.50
2022-11-23T12:40:48.014Z,91.57
2022-11-23T12:44:03.099Z,89.39
2022-11-23T12:46:47.921Z,87.96
2022-11-23T12:49:46.468Z,86.86
2022-11-23T12:52:50.234Z,87.03
2022-11-23T12:55:53.339Z,86.41
2022-11-23T12:58:39.575Z,86.35
2022-11-23T13:01:35.083Z,85.11
2022-11-23T13:04:38.274Z,84.09
2022-11-23T13:07:49.461Z,83.75
2022-11-23T13:10:53.084Z,84.47
2022-11-23T13:14:09.612Z,84.62
2022-11-23T13:17:22.959Z,83.21
2022-11-23T13:20:39.323Z,84.23
2022-11-23T13:23:24.432Z,81.21
2022-11-23T13:26:18.293Z,81.61
2022-11-23T13:30:00.213Z,81.93
2022-11-23T13:32:54.330Z,82.09
2022-11-23T13:35:42.795Z,81.41
2022-11-23T13:38:36.459Z,80.29
2022-11-23T13:41:33.795Z,80.71
2022-11-23T13:44:19.068Z,80.84
2022-11-23T13:47:06.989Z,81.05
2022-11-23T13:50:19.015Z,81.08
2022-11-23T13:53:18.719Z,81.75
2022-11-23T13:56:22.480Z,81.69
2022-11-23T13:59:31.274Z,82.02
2022-11-23T14:02:30.401Z,81.76
2022-11-23T14:05:49.757Z,82.17
2022-11-23T14:08:38.526Z,82.13
2022-11-23T14:11:25.381Z,82.02
2022-11-23T14:14:20.916Z,81.52
2022-11-23T14:17:29.091Z,82.17
2022-11-23T14:20:23.256Z,81.62
2022-11-23T14:23:39.272Z,81.68
2022-11-23T14:26:43.029Z,81.69
2022-11-23T14:29:46.245Z,80.11
2022-11-23T14:32:47.687Z,80.18
2022-11-23T14:36:11.354Z,80.50
2022-11-23T14:39:16.582Z,80.00
2022-11-23T14:42:04.586Z,79.91
2022-11-23T14:44:51.034Z,80.96
2022-11-23T14:47:37.768Z,81.69
2022-11-23T14:50:24.324Z,82.22
2022-11-23T14:53:10.902Z,82.26
2022-11-23T14:55:58.536Z,82.42
2022-11-23T14:58:44.876Z,83.18
2022-11-23T15:01:30.607Z,84.17
2022-11-23T15:04:25.383Z,84.27
2022-11-23T15:07:16.800Z,84.58
2022-11-23T15:10:16.592Z,84.94
2022-11-23T15:13:01.687Z,85.65
2022-11-23T15:15:52.285Z,85.61
2022-11-23T15:18:40.440Z,86.35
2022-11-23T15:21:27.853Z,87.08
2022-11-23T15:24:25.075Z,87.63
2022-11-23T15:27:16.831Z,87.08
2022-11-23T15:30:02.152Z,88.27
2022-11-23T15:32:58.214Z,89.43
2022-11-23T15:35:43.737Z,90.52
2022-11-23T15:38:28.996Z,91.14
2022-11-23T15:41:14.587Z,92.21
2022-11-23T15:44:01.826Z,92.59
2022-11-23T15:46:49.189Z,92.83
2022-11-23T15:49:38.765Z,92.00
2022-11-23T15:52:23.805Z,92.23
2022-11-23T15:55:14.882Z,92.91
2022-11-23T15:58:03.015Z,93.17
2022-11-23T16:00:51.875Z,93.84
2022-11-23T16:03:47.526Z,94.78
2022-11-23T16:06:42.078Z,95.21
2022-11-23T16:09:56.812Z,95.77
2022-11-23T16:12:51.160Z,96.15
2022-11-23T16:15:40.699Z,96.47
2022-11-23T16:18:31.860Z,95.56
2022-11-23T16:21:19.729Z,95.26
2022-11-23T16:24:05.247Z,94.70
2022-11-23T16:26:50.463Z,94.77
2022-11-23T16:29:37.090Z,94.55
2022-11-23T16:32:28.009Z,94.26
2022-11-23T16:35:20.571Z,94.66
2022-11-23T16:38:06.184Z,93.93
2022-11-23T16:40:51.286Z,94.00
2022-11-23T16:43:36.251Z,99.38
2022-11-23T16:46:21.867Z,94.75
2022-11-23T16:49:15.028Z,95.13
2022-11-23T16:52:00.319Z,95.72
2022-11-23T16:54:45.381Z,96.48
2022-11-23T16:57:34.584Z,97.01
2022-11-23T17:00:22.403Z,97.61
2022-11-23T17:03:15.582Z,97.78
2022-11-23T17:06:00.757Z,98.81
2022-11-23T17:08:45.877Z,99.44
2022-11-23T17:11:31.247Z,99.54
2022-11-23T17:14:19.155Z,99.78
2022-11-23T17:17:05.389Z,100.00
2022-11-23T17:19:51.325Z,100.00
2022-11-23T17:22:36.421Z,100.00
2022-11-23T17:25:21.441Z,100.00
2022-11-23T17:28:14.932Z,100.00
2022-11-23T17:30:59.834Z,100.00
2022-11-23T17:33:45.189Z,100.00
2022-11-23T17:36:31.625Z,100.00
2022-11-23T17:39:25.408Z,100.00
2022-11-23T17:42:13.987Z,100.00
2022-11-23T17:44:59.130Z,100.00
2022-11-23T17:47:44.957Z,100.00
2022-11-23T17:50:30.157Z,100.00
2022-11-23T17:53:15.291Z,100.00
2022-11-23T17:56:00.496Z,100.00
2022-11-23T17:58:46.184Z,100.00
2022-11-23T18:01:31.554Z,99.74
2022-11-23T18:04:16.648Z,99.92
2022-11-23T18:07:02.182Z,100.00
2022-11-23T18:09:46.975Z,100.00
2022-11-23T18:12:32.025Z,100.00
2022-11-23T18:15:17.275Z,100.00
2022-11-23T18:18:04.809Z,100.00
2022-11-23T18:20:50.127Z,100.00
2022-11-23T18:23:35.757Z,100.00
2022-11-23T18:26:29.956Z,100.00
2022-11-23T18:29:17.306Z,100.00
2022-11-23T18:32:04.420Z,100.00
2022-11-23T18:34:49.491Z,100.00
2022-11-23T18:37:34.719Z,100.00
2022-11-23T18:40:19.791Z,100.00
2022-11-23T18:43:04.902Z,100.00
2022-11-23T18:45:50.194Z,100.00
2022-11-23T18:48:36.073Z,100.00
2022-11-23T18:51:21.117Z,100.00
2022-11-23T18:54:05.881Z,100.00
2022-11-23T18:56:50.906Z,100.00
2022-11-23T19:02:41.624Z,100.00
2022-11-23T19:05:33.231Z,100.00
2022-11-23T19:08:18.072Z,100.00
2022-11-23T19:11:17.517Z,100.00
2022-11-23T19:14:03.302Z,100.00
2022-11-23T19:16:48.610Z,100.00
2022-11-23T19:19:33.828Z,100.00
2022-11-23T19:22:19.072Z,100.00
2022-11-23T19:25:04.447Z,100.00
2022-11-23T19:27:51.305Z,100.00
2022-11-23T19:30:36.588Z,100.00
2022-11-23T19:33:21.782Z,100.00
2022-11-23T19:36:09.221Z,100.00
2022-11-23T19:38:56.448Z,100.00
2022-11-23T19:41:41.775Z,100.00
2022-11-23T19:44:27.132Z,100.00
2022-11-23T19:47:17.515Z,100.00
2022-11-23T19:50:05.978Z,100.00
2022-11-23T19:53:11.222Z,100.00
2022-11-23T19:56:08.189Z,100.00
2022-11-23T19:58:55.646Z,100.00
2022-11-23T20:01:40.883Z,100.00
2022-11-23T20:04:26.058Z,100.00
2022-11-23T20:07:12.811Z,100.00
2022-11-23T20:09:58.193Z,100.00
2022-11-23T20:12:43.082Z,100.00
2022-11-23T20:15:28.452Z,100.00
2022-11-23T20:18:14.116Z,100.00
2022-11-23T20:20:59.386Z,100.00
2022-11-23T20:23:45.939Z,100.00
2022-11-23T20:26:31.012Z,100.00
2022-11-23T20:29:16.278Z,100.00
2022-11-23T20:32:01.707Z,100.00
2022-11-23T20:34:47.025Z,100.00
2022-11-23T20:37:33.768Z,100.00
2022-11-23T20:40:19.152Z,100.00
2022-11-23T20:43:04.189Z,100.00
2022-11-23T20:45:49.853Z,100.00
2022-11-23T20:48:39.285Z,100.00
2022-11-23T20:51:26.586Z,100.00
2022-11-23T20:54:12.225Z,100.00
2022-11-23T20:56:59.888Z,100.00
2022-11-23T20:59:45.064Z,100.00
2022-11-23T21:02:30.182Z,100.00
2022-11-23T21:05:15.445Z,100.00
2022-11-23T21:08:01.327Z,100.00
2022-11-23T21:11:04.901Z,100.00
2022-11-23T21:14:14.044Z,100.00
2022-11-23T21:17:02.582Z,100.00
2022-11-23T21:19:47.931Z,100.00
2022-11-23T21:22:33.170Z,100.00
2022-11-23T21:25:18.530Z,100.00
2022-11-23T21:28:03.941Z,100.00
2022-11-23T21:30:49.023Z,100.00
2022-11-23T21:33:36.491Z,100.00
2022-11-23T21:36:22.329Z,100.00
2022-11-23T21:39:10.364Z,100.00
2022-11-23T21:41:55.441Z,100.00
2022-11-23T21:44:40.698Z,100.00
2022-11-23T21:47:25.641Z,100.00
2022-11-23T21:50:10.908Z,100.00
2022-11-23T21:52:55.718Z,100.00
2022-11-23T21:55:40.721Z,100.00
2022-11-23T21:58:25.534Z,100.00
2022-11-23T22:01:13.523Z,100.00
2022-11-23T22:04:08.595Z,100.00
2022-11-23T22:06:53.520Z,100.00
2022-11-23T22:09:38.781Z,100.00
2022-11-23T22:12:23.844Z,100.00
2022-11-23T22:15:10.489Z,100.00
2022-11-23T22:17:55.680Z,100.00
2022-11-23T22:20:41.143Z,100.00
2022-11-23T22:23:26.369Z,100.00
2022-11-23T22:26:13.384Z,100.00
2022-11-23T22:29:02.879Z,100.00
2022-11-23T22:31:48.148Z,100.00
2022-11-23T22:34:35.169Z,100.00
2022-11-23T22:37:20.667Z,100.00
2022-11-23T22:40:06.368Z,100.00
2022-11-23T22:42:52.573Z,100.00
2022-11-23T22:45:37.583Z,100.00
2022-11-23T22:48:22.805Z,100.00
2022-11-23T22:51:10.262Z,100.00
2022-11-23T22:53:59.520Z,100.00
2022-11-23T22:56:44.640Z,100.00
2022-11-23T22:59:29.848Z,100.00
2022-11-23T23:02:15.068Z,100.00
2022-11-23T23:05:00.437Z,100.00
2022-11-23T23:07:45.736Z,100.00
2022-11-23T23:10:31.291Z,100.00
2022-11-23T23:13:16.789Z,100.00
2022-11-23T23:16:06.739Z,100.00
2022-11-23T23:18:52.121Z,100.00
2022-11-23T23:21:37.368Z,100.00
2022-11-23T23:24:22.241Z,100.00
2022-11-23T23:27:07.240Z,100.00
2022-11-23T23:29:52.232Z,100.00
2022-11-23T23:32:37.273Z,100.00
2022-11-23T23:35:22.308Z,100.00
2022-11-23T23:38:07.502Z,100.00
2022-11-23T23:40:55.329Z,100.00
2022-11-23T23:43:41.240Z,100.00
2022-11-23T23:46:26.116Z,100.00
2022-11-23T23:49:11.391Z,100.00
2022-11-23T23:51:56.272Z,100.00
2022-11-23T23:54:41.214Z,100.00
2022-11-23T23:57:26.110Z,100.00
